createdAt,value
2022-10-16T00:00:52.584Z,5.59
2022-10-16T00:01:36.685Z,5.63
2022-10-16T00:02:17.629Z,5.65
2022-10-16T00:03:04.668Z,5.86
2022-10-16T00:03:59.546Z,5.88
2022-10-16T00:04:53.565Z,5.97
2022-10-16T00:05:53.541Z,5.74
2022-10-16T00:06:47.561Z,5.55
2022-10-16T00:07:41.555Z,5.41
2022-10-16T00:08:28.610Z,5.65
2022-10-16T00:09:09.621Z,5.80
2022-10-16T00:09:49.565Z,5.68
2022-10-16T00:10:30.612Z,5.43
2022-10-16T00:11:20.545Z,5.30
2022-10-16T00:12:00.651Z,5.75
2022-10-16T00:12:40.530Z,5.55
2022-10-16T00:13:21.725Z,5.60
2022-10-16T00:14:08.560Z,5.39
2022-10-16T00:14:49.624Z,5.46
2022-10-16T00:15:29.562Z,5.55
2022-10-16T00:16:11.645Z,5.55
2022-10-16T00:16:51.537Z,5.35
2022-10-16T00:17:31.599Z,5.38
2022-10-16T00:18:13.530Z,5.24
2022-10-16T00:18:54.617Z,5.15
2022-10-16T00:19:34.708Z,5.31
2022-10-16T00:20:15.576Z,5.34
2022-10-16T00:21:37.600Z,5.44
2022-10-16T00:22:17.533Z,5.30
2022-10-16T00:22:58.099Z,5.21
2022-10-16T00:23:39.562Z,5.20
2022-10-16T00:24:19.655Z,4.76
2022-10-16T00:24:59.566Z,5.01
2022-10-16T00:25:40.572Z,5.06
2022-10-16T00:26:24.526Z,5.00
2022-10-16T00:27:04.577Z,5.09
2022-10-16T00:27:44.517Z,5.04
2022-10-16T00:28:24.683Z,5.10
2022-10-16T00:29:05.641Z,5.14
2022-10-16T00:29:46.688Z,4.76
2022-10-16T00:30:26.651Z,4.59
2022-10-16T00:31:06.646Z,4.66
2022-10-16T00:31:46.502Z,4.75
2022-10-16T00:32:27.914Z,4.63
2022-10-16T00:33:08.513Z,4.94
2022-10-16T00:33:48.560Z,4.70
2022-10-16T00:34:28.535Z,4.91
2022-10-16T00:35:09.630Z,4.86
2022-10-16T00:35:49.557Z,4.78
2022-10-16T00:36:33.029Z,4.55
2022-10-16T00:37:13.504Z,4.56
2022-10-16T00:37:53.587Z,4.66
2022-10-16T00:38:34.506Z,4.69
2022-10-16T00:39:14.588Z,4.64
2022-10-16T00:39:55.500Z,4.53
2022-10-16T00:40:35.582Z,4.59
2022-10-16T00:41:20.561Z,4.45
2022-10-16T00:42:00.628Z,4.41
2022-10-16T00:42:40.526Z,4.39
2022-10-16T00:43:49.603Z,4.43
2022-10-16T00:44:54.502Z,4.55
2022-10-16T00:45:35.574Z,4.45
2022-10-16T00:46:42.527Z,4.43
2022-10-16T00:47:37.628Z,4.46
2022-10-16T00:48:22.516Z,4.29
2022-10-16T00:49:24.588Z,4.21
2022-10-16T00:50:34.515Z,4.18
2022-10-16T00:51:15.595Z,4.22
2022-10-16T00:51:58.522Z,4.16
2022-10-16T00:52:38.732Z,4.07
2022-10-16T00:53:19.490Z,4.29
2022-10-16T00:54:00.678Z,4.31
2022-10-16T00:54:41.507Z,4.40
2022-10-16T00:55:22.597Z,4.26
2022-10-16T00:56:02.509Z,4.35
2022-10-16T00:56:42.625Z,4.19
2022-10-16T00:57:22.525Z,4.13
2022-10-16T00:58:03.565Z,4.06
2022-10-16T00:58:43.481Z,4.18
2022-10-16T00:59:42.557Z,4.14
2022-10-16T01:00:27.534Z,4.13
2022-10-16T01:01:08.611Z,3.99
2022-10-16T01:01:48.516Z,4.19
2022-10-16T01:02:35.524Z,4.15
2022-10-16T01:03:34.637Z,3.84
2022-10-16T01:04:21.491Z,3.81
2022-10-16T01:04:55.756Z,4.05
2022-10-16T01:05:54.489Z,4.22
2022-10-16T01:07:03.920Z,4.01
2022-10-16T01:08:16.545Z,3.90
2022-10-16T01:09:17.848Z,4.06
2022-10-16T01:10:28.499Z,4.18
2022-10-16T01:11:37.149Z,3.96
2022-10-16T01:12:59.479Z,3.95
2022-10-16T01:13:48.521Z,4.05
2022-10-16T01:15:01.574Z,4.01
2022-10-16T01:16:22.519Z,3.79
2022-10-16T01:17:16.565Z,3.72
2022-10-16T01:18:04.479Z,3.88
2022-10-16T01:18:58.509Z,3.94
2022-10-16T01:19:37.784Z,3.80
2022-10-16T01:21:08.496Z,3.88
2022-10-16T01:21:45.726Z,4.14
2022-10-16T01:22:34.466Z,4.20
2022-10-16T01:23:26.181Z,4.13
2022-10-16T01:24:58.605Z,4.16
2022-10-16T01:25:55.281Z,4.31
2022-10-16T01:27:32.488Z,4.14
2022-10-16T01:28:07.420Z,3.83
2022-10-16T01:29:27.473Z,3.75
2022-10-16T01:30:17.489Z,3.89
2022-10-16T01:31:01.552Z,4.07
2022-10-16T01:31:46.469Z,3.97
2022-10-16T01:33:02.550Z,3.91
2022-10-16T01:35:11.636Z,3.96
2022-10-16T01:35:59.511Z,3.83
2022-10-16T01:36:47.544Z,3.61
2022-10-16T01:37:56.501Z,3.59
2022-10-16T01:38:44.544Z,3.71
2022-10-16T01:39:30.483Z,3.79
2022-10-16T01:40:17.560Z,3.88
2022-10-16T01:41:03.489Z,3.79
2022-10-16T01:41:52.516Z,3.49
2022-10-16T01:42:47.529Z,3.29
2022-10-16T01:43:36.516Z,3.33
2022-10-16T01:44:27.447Z,3.54
2022-10-16T01:45:08.845Z,3.41
2022-10-16T01:45:52.434Z,3.61
2022-10-16T01:46:33.490Z,3.60
2022-10-16T01:47:07.545Z,3.63
2022-10-16T01:47:42.215Z,3.47
2022-10-16T01:48:27.449Z,3.20
2022-10-16T01:49:01.532Z,3.35
2022-10-16T01:49:37.824Z,3.46
2022-10-16T01:50:18.454Z,3.33
2022-10-16T01:51:06.505Z,3.25
2022-10-16T01:51:46.466Z,3.47
2022-10-16T01:52:31.601Z,3.38
2022-10-16T01:53:13.456Z,3.22
2022-10-16T01:53:58.513Z,3.01
2022-10-16T01:54:41.454Z,3.11
2022-10-16T01:55:27.512Z,3.01
2022-10-16T01:56:08.447Z,2.97
2022-10-16T01:56:56.482Z,3.16
2022-10-16T01:57:31.545Z,3.16
2022-10-16T01:58:21.433Z,3.15
2022-10-16T01:59:16.820Z,2.99
2022-10-16T02:00:07.442Z,2.85
2022-10-16T02:00:45.013Z,2.99
2022-10-16T02:01:34.465Z,3.11
2022-10-16T02:02:17.470Z,2.78
2022-10-16T02:03:01.499Z,2.94
2022-10-16T02:03:42.431Z,3.10
2022-10-16T02:04:32.521Z,3.05
2022-10-16T02:05:35.462Z,3.04
2022-10-16T02:06:15.505Z,3.05
2022-10-16T02:06:55.442Z,2.96
2022-10-16T02:07:42.469Z,3.00
2022-10-16T02:08:16.204Z,2.99
2022-10-16T02:09:04.429Z,2.97
2022-10-16T02:09:58.425Z,3.06
2022-10-16T02:10:52.432Z,3.14
2022-10-16T02:11:46.414Z,3.03
2022-10-16T02:12:46.482Z,2.96
2022-10-16T02:13:58.448Z,3.06
2022-10-16T02:14:53.441Z,2.91
2022-10-16T02:15:47.450Z,3.03
2022-10-16T02:16:50.419Z,3.20
2022-10-16T02:17:44.424Z,3.36
2022-10-16T02:18:25.408Z,3.20
2022-10-16T02:19:05.514Z,3.14
2022-10-16T02:19:46.426Z,3.31
2022-10-16T02:20:32.491Z,3.15
2022-10-16T02:21:24.443Z,3.09
2022-10-16T02:22:08.479Z,2.90
2022-10-16T02:22:54.466Z,2.80
2022-10-16T02:24:14.523Z,3.04
2022-10-16T02:25:25.433Z,2.96
2022-10-16T02:26:06.479Z,2.64
2022-10-16T02:26:55.431Z,2.84
2022-10-16T02:28:01.587Z,2.95
2022-10-16T02:29:06.434Z,2.89
2022-10-16T02:30:09.427Z,2.96
2022-10-16T02:31:13.398Z,2.91
2022-10-16T02:32:15.426Z,2.72
2022-10-16T02:33:11.440Z,2.83
2022-10-16T02:34:06.428Z,2.85
2022-10-16T02:35:03.444Z,2.71
2022-10-16T02:35:59.412Z,2.84
2022-10-16T02:36:55.455Z,2.80
2022-10-16T02:37:50.385Z,2.85
2022-10-16T02:38:32.439Z,2.97
2022-10-16T02:39:13.478Z,2.79
2022-10-16T02:39:53.407Z,2.76
2022-10-16T02:40:34.493Z,2.94
2022-10-16T02:41:15.409Z,3.17
2022-10-16T02:41:55.466Z,3.13
2022-10-16T02:42:44.409Z,2.81
2022-10-16T02:43:25.089Z,2.75
2022-10-16T02:44:06.470Z,2.80
2022-10-16T02:44:46.589Z,2.88
2022-10-16T02:45:27.403Z,2.94
2022-10-16T02:46:07.487Z,3.01
2022-10-16T02:46:47.425Z,2.95
2022-10-16T02:47:27.542Z,2.90
2022-10-16T02:48:07.420Z,3.00
2022-10-16T02:48:47.556Z,3.08
2022-10-16T02:49:27.412Z,3.01
2022-10-16T02:50:07.471Z,2.85
2022-10-16T02:50:47.402Z,2.84
2022-10-16T02:51:27.791Z,3.09
2022-10-16T02:52:07.429Z,2.94
2022-10-16T02:52:47.499Z,2.95
2022-10-16T02:53:28.397Z,3.22
2022-10-16T02:54:09.484Z,3.15
2022-10-16T02:54:49.415Z,3.14
2022-10-16T02:55:29.457Z,3.34
2022-10-16T02:56:09.505Z,3.26
2022-10-16T02:56:49.480Z,3.28
2022-10-16T02:57:29.609Z,3.08
2022-10-16T02:58:09.479Z,2.96
2022-10-16T02:58:50.396Z,3.00
2022-10-16T02:59:30.466Z,3.04
2022-10-16T03:00:19.448Z,2.90
2022-10-16T03:00:59.630Z,3.19
2022-10-16T03:01:39.421Z,3.25
2022-10-16T03:02:19.461Z,3.10
2022-10-16T03:02:59.373Z,3.04
2022-10-16T03:03:39.444Z,3.06
2022-10-16T03:04:19.398Z,3.05
2022-10-16T03:04:59.505Z,3.19
2022-10-16T03:05:39.413Z,3.06
2022-10-16T03:06:19.503Z,2.95
2022-10-16T03:06:59.381Z,2.96
2022-10-16T03:07:53.406Z,3.10
2022-10-16T03:08:47.371Z,2.96
2022-10-16T03:09:41.372Z,2.88
2022-10-16T03:10:35.405Z,2.90
2022-10-16T03:11:16.413Z,2.72
2022-10-16T03:11:56.657Z,2.88
2022-10-16T03:12:37.385Z,2.96
2022-10-16T03:13:17.462Z,2.81
2022-10-16T03:13:57.386Z,2.85
2022-10-16T03:14:37.559Z,2.85
2022-10-16T03:15:18.365Z,2.85
2022-10-16T03:16:12.381Z,2.96
2022-10-16T03:16:52.376Z,3.00
2022-10-16T03:17:33.491Z,2.91
2022-10-16T03:18:14.372Z,2.75
2022-10-16T03:18:57.537Z,2.85
2022-10-16T03:19:37.370Z,2.99
2022-10-16T03:20:18.501Z,3.06
2022-10-16T03:20:58.368Z,3.08
2022-10-16T03:21:38.546Z,3.13
2022-10-16T03:22:18.389Z,3.37
2022-10-16T03:22:58.451Z,3.59
2022-10-16T03:23:39.393Z,3.45
2022-10-16T03:24:19.464Z,3.58
2022-10-16T03:24:59.379Z,3.61
2022-10-16T03:25:39.458Z,3.44
2022-10-16T03:26:19.362Z,3.50
2022-10-16T03:26:59.440Z,3.31
2022-10-16T03:27:39.422Z,3.21
2022-10-16T03:28:19.456Z,3.42
2022-10-16T03:29:00.470Z,3.56
2022-10-16T03:29:40.412Z,3.17
2022-10-16T03:30:20.382Z,3.04
2022-10-16T03:31:00.450Z,3.16
2022-10-16T03:31:41.371Z,3.15
2022-10-16T03:32:21.452Z,3.11
2022-10-16T03:33:01.497Z,3.16
2022-10-16T03:33:41.428Z,3.14
2022-10-16T03:34:22.357Z,3.19
2022-10-16T03:35:02.417Z,3.10
2022-10-16T03:35:43.368Z,3.10
2022-10-16T03:36:23.597Z,3.03
2022-10-16T03:37:03.363Z,2.99
2022-10-16T03:37:43.427Z,3.04
2022-10-16T03:38:23.397Z,3.09
2022-10-16T03:39:03.461Z,3.11
2022-10-16T03:39:44.341Z,3.29
2022-10-16T03:40:25.408Z,3.14
2022-10-16T03:41:05.341Z,3.04
2022-10-16T03:41:47.298Z,2.96
2022-10-16T03:42:27.332Z,3.09
2022-10-16T03:43:07.480Z,3.15
2022-10-16T03:43:47.385Z,3.19
2022-10-16T03:44:27.417Z,3.26
2022-10-16T03:45:07.341Z,3.21
2022-10-16T03:45:47.443Z,3.17
2022-10-16T03:46:27.357Z,3.26
2022-10-16T03:47:07.408Z,3.00
2022-10-16T03:47:47.349Z,2.92
2022-10-16T03:48:27.398Z,3.04
2022-10-16T03:49:09.795Z,3.10
2022-10-16T03:49:50.417Z,3.14
2022-10-16T03:50:30.363Z,3.34
2022-10-16T03:51:10.441Z,3.44
2022-10-16T03:51:51.349Z,3.14
2022-10-16T03:52:31.410Z,3.06
2022-10-16T03:53:12.342Z,3.03
2022-10-16T03:53:52.445Z,3.04
2022-10-16T03:54:33.355Z,2.96
2022-10-16T03:55:14.385Z,2.92
2022-10-16T03:55:54.323Z,3.17
2022-10-16T03:56:34.455Z,3.28
2022-10-16T03:57:15.353Z,3.05
2022-10-16T03:57:55.404Z,3.14
2022-10-16T03:58:35.345Z,3.14
2022-10-16T03:59:15.400Z,3.21
2022-10-16T03:59:56.348Z,3.42
2022-10-16T04:00:36.433Z,3.29
2022-10-16T04:01:16.367Z,3.24
2022-10-16T04:01:56.397Z,2.92
2022-10-16T04:02:36.362Z,3.00
2022-10-16T04:03:18.249Z,3.42
2022-10-16T04:03:58.349Z,3.55
2022-10-16T04:04:38.422Z,3.14
2022-10-16T04:05:19.364Z,3.33
2022-10-16T04:05:59.624Z,3.22
2022-10-16T04:06:39.323Z,3.38
2022-10-16T04:07:19.393Z,3.50
2022-10-16T04:07:59.324Z,3.36
2022-10-16T04:08:40.117Z,3.30
2022-10-16T04:09:20.339Z,3.33
2022-10-16T04:10:00.407Z,3.53
2022-10-16T04:10:41.393Z,3.42
2022-10-16T04:11:21.399Z,3.55
2022-10-16T04:12:02.336Z,3.49
2022-10-16T04:12:42.396Z,3.15
2022-10-16T04:13:23.323Z,3.31
2022-10-16T04:14:03.820Z,3.47
2022-10-16T04:14:43.353Z,3.53
2022-10-16T04:15:23.383Z,3.33
2022-10-16T04:16:04.373Z,3.55
2022-10-16T04:16:44.402Z,3.63
2022-10-16T04:17:24.769Z,3.58
2022-10-16T04:18:05.396Z,3.47
2022-10-16T04:18:45.330Z,3.34
2022-10-16T04:19:25.371Z,3.65
2022-10-16T04:20:05.321Z,3.64
2022-10-16T04:20:45.369Z,3.71
2022-10-16T04:21:26.339Z,3.80
2022-10-16T04:22:06.381Z,3.76
2022-10-16T04:22:46.324Z,3.70
2022-10-16T04:23:26.387Z,3.88
2022-10-16T04:24:06.320Z,3.76
2022-10-16T04:24:46.386Z,3.78
2022-10-16T04:25:26.318Z,3.78
2022-10-16T04:26:07.376Z,3.84
2022-10-16T04:26:48.335Z,3.95
2022-10-16T04:27:29.427Z,3.80
2022-10-16T04:28:10.310Z,3.80
2022-10-16T04:28:51.444Z,3.90
2022-10-16T04:29:31.312Z,3.75
2022-10-16T04:30:12.402Z,3.54
2022-10-16T04:30:52.322Z,3.94
2022-10-16T04:31:32.376Z,3.86
2022-10-16T04:32:13.334Z,3.85
2022-10-16T04:32:57.413Z,3.83
2022-10-16T04:33:37.315Z,3.90
2022-10-16T04:34:17.398Z,4.43
2022-10-16T04:34:57.294Z,4.90
2022-10-16T04:35:37.399Z,5.39
2022-10-16T04:36:18.311Z,5.21
2022-10-16T04:36:58.408Z,4.72
2022-10-16T04:37:39.412Z,4.15
2022-10-16T04:38:19.459Z,4.01
2022-10-16T04:38:59.305Z,4.11
2022-10-16T04:39:39.364Z,3.95
2022-10-16T04:40:20.283Z,3.95
2022-10-16T04:41:00.863Z,4.05
2022-10-16T04:41:41.285Z,4.16
2022-10-16T04:42:21.404Z,4.53
2022-10-16T04:43:01.351Z,4.26
2022-10-16T04:43:42.497Z,4.38
2022-10-16T04:44:22.302Z,4.40
2022-10-16T04:45:02.360Z,4.25
2022-10-16T04:45:42.286Z,4.21
2022-10-16T04:46:22.396Z,4.24
2022-10-16T04:47:03.294Z,4.15
2022-10-16T04:47:43.354Z,4.01
2022-10-16T04:48:23.336Z,4.07
2022-10-16T04:49:03.397Z,4.16
2022-10-16T04:49:44.322Z,4.07
2022-10-16T04:50:24.348Z,4.15
2022-10-16T04:51:04.299Z,4.26
2022-10-16T04:51:44.359Z,4.31
2022-10-16T04:52:26.356Z,4.49
2022-10-16T04:53:06.454Z,4.51
2022-10-16T04:53:46.323Z,4.50
2022-10-16T04:54:26.338Z,4.45
2022-10-16T04:55:09.300Z,4.38
2022-10-16T04:55:50.405Z,4.43
2022-10-16T04:56:31.315Z,4.56
2022-10-16T04:57:11.365Z,4.54
2022-10-16T04:57:51.282Z,4.84
2022-10-16T04:58:31.353Z,4.85
2022-10-16T04:59:11.300Z,4.75
2022-10-16T04:59:51.354Z,4.88
2022-10-16T05:00:31.291Z,5.04
2022-10-16T05:01:11.380Z,4.86
2022-10-16T05:01:52.285Z,4.74
2022-10-16T05:02:32.411Z,4.50
2022-10-16T05:03:15.399Z,4.81
2022-10-16T05:03:55.347Z,4.88
2022-10-16T05:04:35.299Z,4.90
2022-10-16T05:05:15.390Z,4.82
2022-10-16T05:05:55.282Z,4.74
2022-10-16T05:06:35.333Z,4.78
2022-10-16T05:07:16.284Z,4.84
2022-10-16T05:07:56.349Z,4.96
2022-10-16T05:08:37.292Z,4.94
2022-10-16T05:09:17.355Z,4.91
2022-10-16T05:09:57.310Z,4.79
2022-10-16T05:10:37.335Z,4.94
2022-10-16T05:11:17.267Z,4.91
2022-10-16T05:12:11.284Z,4.86
2022-10-16T05:13:05.289Z,5.04
2022-10-16T05:13:59.301Z,5.45
2022-10-16T05:14:53.292Z,5.41
2022-10-16T05:15:33.325Z,5.71
2022-10-16T05:16:13.350Z,6.01
2022-10-16T05:16:55.284Z,6.18
2022-10-16T05:17:35.362Z,6.20
2022-10-16T05:18:16.286Z,6.09
2022-10-16T05:19:22.404Z,5.81
2022-10-16T05:19:56.251Z,5.76
2022-10-16T05:20:43.282Z,5.84
2022-10-16T05:21:37.295Z,5.97
2022-10-16T05:22:31.290Z,5.99
2022-10-16T05:23:25.291Z,6.06
2022-10-16T05:24:19.304Z,5.97
2022-10-16T05:25:13.271Z,5.75
2022-10-16T05:26:05.284Z,5.81
2022-10-16T05:26:39.334Z,6.04
2022-10-16T05:27:26.444Z,5.82
2022-10-16T05:28:00.376Z,5.72
2022-10-16T05:28:47.313Z,5.96
2022-10-16T05:29:21.412Z,6.09
2022-10-16T05:30:09.958Z,6.19
2022-10-16T05:30:46.321Z,6.22
2022-10-16T05:31:27.309Z,6.21
2022-10-16T05:32:07.338Z,6.26
2022-10-16T05:32:48.253Z,6.29
2022-10-16T05:33:31.335Z,6.44
2022-10-16T05:34:12.286Z,6.26
2022-10-16T05:34:52.555Z,6.15
2022-10-16T05:35:32.259Z,6.11
2022-10-16T05:36:16.325Z,6.35
2022-10-16T05:36:57.273Z,6.82
2022-10-16T05:37:37.321Z,6.60
2022-10-16T05:38:17.249Z,6.53
2022-10-16T05:38:58.296Z,6.54
2022-10-16T05:39:39.228Z,6.68
2022-10-16T05:40:20.398Z,6.78
2022-10-16T05:41:01.321Z,6.65
2022-10-16T05:41:41.352Z,6.49
2022-10-16T05:42:22.345Z,6.76
2022-10-16T05:43:03.377Z,7.04
2022-10-16T05:43:43.261Z,6.81
2022-10-16T05:44:23.386Z,6.81
2022-10-16T05:45:03.241Z,6.65
2022-10-16T05:45:43.514Z,6.66
2022-10-16T05:46:24.330Z,6.80
2022-10-16T05:47:04.380Z,6.72
2022-10-16T05:47:45.279Z,6.90
2022-10-16T05:48:25.328Z,7.30
2022-10-16T05:49:05.262Z,7.32
2022-10-16T05:49:45.373Z,7.30
2022-10-16T05:50:25.257Z,7.03
2022-10-16T05:51:22.246Z,7.34
2022-10-16T05:52:16.270Z,7.46
2022-10-16T05:53:04.269Z,7.18
2022-10-16T05:53:40.364Z,7.24
2022-10-16T05:54:27.233Z,7.34
2022-10-16T05:55:01.317Z,7.44
2022-10-16T05:55:49.239Z,7.41
2022-10-16T05:56:23.341Z,7.29
2022-10-16T05:57:10.226Z,7.36
2022-10-16T05:57:44.313Z,7.30
2022-10-16T05:58:24.261Z,7.61
2022-10-16T05:59:04.292Z,7.70
2022-10-16T05:59:45.235Z,7.49
2022-10-16T06:00:25.325Z,7.80
2022-10-16T06:01:11.260Z,8.13
2022-10-16T06:01:51.328Z,8.70
2022-10-16T06:02:32.239Z,9.19
2022-10-16T06:03:12.292Z,9.10
2022-10-16T06:03:53.251Z,8.48
2022-10-16T06:04:33.275Z,9.16
2022-10-16T06:05:14.212Z,10.21
2022-10-16T06:05:54.952Z,10.20
2022-10-16T06:06:37.251Z,10.50
2022-10-16T06:07:17.318Z,11.49
2022-10-16T06:07:57.245Z,12.61
2022-10-16T06:08:51.242Z,15.51
2022-10-16T06:09:31.225Z,17.04
2022-10-16T06:10:13.319Z,16.51
2022-10-16T06:10:55.235Z,16.16
2022-10-16T06:11:38.286Z,15.70
2022-10-16T06:12:19.224Z,14.71
2022-10-16T06:12:59.298Z,16.21
2022-10-16T06:13:39.244Z,17.48
2022-10-16T06:14:19.261Z,18.30
2022-10-16T06:14:54.402Z,16.81
2022-10-16T06:15:41.249Z,15.40
2022-10-16T06:16:16.716Z,14.88
2022-10-16T06:17:03.233Z,14.43
2022-10-16T06:17:37.377Z,12.55
2022-10-16T06:18:24.372Z,10.59
2022-10-16T06:19:03.355Z,9.69
2022-10-16T06:19:45.262Z,9.26
2022-10-16T06:20:25.324Z,9.19
2022-10-16T06:21:06.237Z,9.15
2022-10-16T06:21:46.368Z,9.13
2022-10-16T06:22:27.225Z,9.11
2022-10-16T06:23:07.336Z,9.25
2022-10-16T06:23:47.307Z,8.80
2022-10-16T06:24:27.353Z,9.05
2022-10-16T06:25:07.254Z,9.59
2022-10-16T06:25:47.399Z,9.50
2022-10-16T06:26:31.249Z,9.13
2022-10-16T06:27:12.357Z,10.05
2022-10-16T06:27:52.225Z,10.55
2022-10-16T06:28:32.329Z,10.00
2022-10-16T06:29:13.229Z,10.13
2022-10-16T06:29:53.290Z,10.66
2022-10-16T06:30:36.257Z,10.96
2022-10-16T06:31:18.321Z,10.93
2022-10-16T06:32:00.226Z,11.32
2022-10-16T06:32:40.336Z,11.30
2022-10-16T06:33:21.236Z,12.68
2022-10-16T06:34:03.022Z,13.36
2022-10-16T06:34:44.173Z,13.01
2022-10-16T06:35:24.812Z,12.95
2022-10-16T06:36:22.340Z,14.27
2022-10-16T06:37:03.316Z,15.73
2022-10-16T06:37:43.273Z,16.40
2022-10-16T06:38:23.356Z,15.31
2022-10-16T06:39:04.262Z,13.18
2022-10-16T06:39:45.562Z,11.38
2022-10-16T06:40:25.214Z,11.46
2022-10-16T06:41:06.446Z,12.23
2022-10-16T06:41:47.296Z,11.88
2022-10-16T06:42:27.668Z,11.29
2022-10-16T06:43:09.208Z,11.66
2022-10-16T06:43:49.360Z,11.90
2022-10-16T06:44:29.221Z,11.07
2022-10-16T06:45:09.281Z,10.81
2022-10-16T06:45:50.250Z,10.34
2022-10-16T06:46:32.376Z,9.71
2022-10-16T06:47:13.312Z,9.90
2022-10-16T06:47:53.267Z,10.01
2022-10-16T06:48:34.216Z,9.93
2022-10-16T06:49:16.863Z,10.39
2022-10-16T06:49:57.225Z,10.31
2022-10-16T06:50:37.341Z,10.11
2022-10-16T06:51:32.232Z,10.09
2022-10-16T06:52:12.308Z,10.14
2022-10-16T06:52:52.243Z,10.13
2022-10-16T06:53:40.110Z,10.38
2022-10-16T06:54:41.830Z,11.24
2022-10-16T06:55:22.294Z,12.46
2022-10-16T06:56:06.029Z,12.31
2022-10-16T06:56:46.370Z,11.20
2022-10-16T06:57:27.228Z,10.54
2022-10-16T06:58:07.227Z,10.36
2022-10-16T06:58:41.277Z,9.77
2022-10-16T06:59:31.241Z,9.41
2022-10-16T07:00:05.302Z,9.16
2022-10-16T07:00:52.221Z,8.84
2022-10-16T07:01:28.464Z,9.25
2022-10-16T07:02:17.233Z,9.18
2022-10-16T07:02:51.292Z,8.91
2022-10-16T07:03:31.226Z,8.74
2022-10-16T07:04:11.261Z,8.91
2022-10-16T07:04:51.185Z,8.91
2022-10-16T07:05:31.286Z,8.93
2022-10-16T07:06:13.209Z,9.04
2022-10-16T07:06:53.368Z,8.82
2022-10-16T07:07:34.210Z,9.07
2022-10-16T07:08:15.267Z,8.74
2022-10-16T07:08:56.218Z,9.23
2022-10-16T07:09:36.665Z,9.25
2022-10-16T07:10:17.171Z,9.10
2022-10-16T07:11:23.169Z,8.99
2022-10-16T07:12:17.215Z,9.07
2022-10-16T07:13:11.194Z,8.95
2022-10-16T07:14:06.224Z,8.64
2022-10-16T07:15:00.197Z,8.55
2022-10-16T07:15:55.182Z,8.70
2022-10-16T07:16:49.197Z,8.73
2022-10-16T07:17:43.190Z,8.79
2022-10-16T07:18:37.239Z,9.27
2022-10-16T07:19:25.255Z,9.40
2022-10-16T07:19:59.266Z,9.93
2022-10-16T07:20:46.222Z,9.88
2022-10-16T07:21:23.799Z,9.51
2022-10-16T07:22:12.179Z,9.48
2022-10-16T07:22:46.277Z,8.90
2022-10-16T07:23:33.186Z,8.88
2022-10-16T07:24:08.298Z,9.01
2022-10-16T07:24:52.446Z,8.88
2022-10-16T07:25:33.273Z,8.84
2022-10-16T07:26:14.182Z,9.07
2022-10-16T07:26:54.320Z,8.88
2022-10-16T07:27:35.197Z,8.85
2022-10-16T07:28:15.216Z,8.93
2022-10-16T07:28:56.274Z,8.73
2022-10-16T07:29:36.261Z,9.04
2022-10-16T07:30:17.200Z,8.86
2022-10-16T07:30:57.331Z,8.41
2022-10-16T07:31:37.169Z,8.46
2022-10-16T07:32:17.305Z,8.30
2022-10-16T07:32:58.189Z,8.45
2022-10-16T07:33:39.617Z,8.66
2022-10-16T07:34:21.172Z,8.26
2022-10-16T07:35:01.295Z,8.43
2022-10-16T07:35:41.198Z,8.49
2022-10-16T07:36:24.323Z,8.31
2022-10-16T07:37:04.177Z,8.25
2022-10-16T07:37:44.271Z,8.51
2022-10-16T07:38:25.187Z,8.15
2022-10-16T07:39:05.330Z,8.44
2022-10-16T07:39:45.184Z,8.85
2022-10-16T07:40:25.240Z,8.34
2022-10-16T07:41:07.202Z,8.10
2022-10-16T07:41:47.237Z,8.39
2022-10-16T07:42:28.186Z,8.46
2022-10-16T07:43:08.242Z,8.38
2022-10-16T07:43:55.149Z,8.19
2022-10-16T07:44:35.260Z,8.18
2022-10-16T07:45:16.171Z,8.20
2022-10-16T07:45:59.026Z,8.27
2022-10-16T07:46:43.202Z,8.49
2022-10-16T07:47:23.371Z,8.30
2022-10-16T07:48:03.213Z,8.50
2022-10-16T07:48:46.562Z,8.14
2022-10-16T07:49:26.143Z,7.81
2022-10-16T07:50:06.212Z,8.00
2022-10-16T07:50:46.178Z,8.26
2022-10-16T07:51:29.362Z,8.32
2022-10-16T07:52:10.282Z,8.23
2022-10-16T07:52:50.267Z,8.04
2022-10-16T07:53:32.150Z,7.88
2022-10-16T07:54:12.410Z,7.88
2022-10-16T07:54:52.240Z,7.94
2022-10-16T07:55:32.218Z,7.59
2022-10-16T07:56:14.188Z,7.93
2022-10-16T07:56:54.242Z,8.09
2022-10-16T07:57:35.205Z,7.91
2022-10-16T07:58:15.262Z,7.39
2022-10-16T07:58:57.147Z,7.56
2022-10-16T07:59:37.234Z,7.45
2022-10-16T08:00:21.156Z,7.47
2022-10-16T08:01:02.256Z,7.30
2022-10-16T08:01:42.189Z,7.49
2022-10-16T08:02:22.209Z,7.66
2022-10-16T08:03:04.188Z,7.69
2022-10-16T08:03:44.274Z,7.36
2022-10-16T08:04:25.153Z,7.55
2022-10-16T08:05:05.237Z,7.49
2022-10-16T08:05:45.154Z,7.74
2022-10-16T08:06:28.124Z,8.31
2022-10-16T08:07:09.166Z,9.29
2022-10-16T08:07:49.226Z,10.40
2022-10-16T08:08:29.185Z,9.77
2022-10-16T08:09:09.218Z,9.90
2022-10-16T08:09:50.121Z,10.65
2022-10-16T08:10:33.215Z,12.04
2022-10-16T08:11:14.183Z,11.84
2022-10-16T08:12:10.158Z,10.32
2022-10-16T08:13:52.169Z,8.57
2022-10-16T08:14:32.221Z,9.48
2022-10-16T08:15:13.108Z,8.98
2022-10-16T08:15:54.196Z,8.75
2022-10-16T08:16:34.161Z,7.96
2022-10-16T08:17:14.219Z,7.55
2022-10-16T08:18:13.150Z,7.61
2022-10-16T08:19:01.172Z,6.75
2022-10-16T08:20:00.160Z,6.49
2022-10-16T08:20:55.164Z,6.71
2022-10-16T08:21:49.143Z,6.76
2022-10-16T08:22:43.145Z,6.65
2022-10-16T08:23:41.089Z,6.35
2022-10-16T08:24:21.165Z,6.45
2022-10-16T08:25:01.210Z,6.74
2022-10-16T08:25:45.149Z,6.79
2022-10-16T08:26:25.371Z,6.66
2022-10-16T08:27:06.129Z,6.22
2022-10-16T08:27:46.246Z,5.94
2022-10-16T08:28:27.186Z,6.05
2022-10-16T08:29:07.281Z,5.61
2022-10-16T08:29:47.178Z,5.50
2022-10-16T08:30:30.228Z,5.81
2022-10-16T08:31:22.142Z,5.78
2022-10-16T08:32:02.252Z,5.39
2022-10-16T08:32:42.158Z,5.36
2022-10-16T08:33:22.241Z,5.19
2022-10-16T08:34:03.129Z,5.21
2022-10-16T08:34:43.295Z,5.39
2022-10-16T08:35:24.137Z,5.47
2022-10-16T08:36:04.228Z,5.19
2022-10-16T08:36:45.126Z,5.56
2022-10-16T08:37:25.172Z,6.04
2022-10-16T08:38:05.106Z,5.90
2022-10-16T08:38:46.171Z,5.40
2022-10-16T08:39:26.124Z,5.44
2022-10-16T08:40:06.205Z,5.54
2022-10-16T08:40:48.624Z,5.53
2022-10-16T08:42:12.594Z,5.50
2022-10-16T08:43:30.165Z,5.34
2022-10-16T08:44:27.208Z,5.59
2022-10-16T08:45:27.100Z,5.72
2022-10-16T08:46:37.162Z,5.72
2022-10-16T08:47:42.218Z,6.18
2022-10-16T08:48:38.137Z,6.19
2022-10-16T08:49:18.193Z,5.57
2022-10-16T08:50:10.117Z,5.64
2022-10-16T08:50:46.163Z,5.78
2022-10-16T08:51:44.298Z,5.57
2022-10-16T08:52:20.178Z,5.61
2022-10-16T08:53:07.130Z,5.50
2022-10-16T08:53:57.244Z,5.34
2022-10-16T08:54:49.089Z,5.49
2022-10-16T08:55:47.197Z,5.74
2022-10-16T08:56:35.121Z,5.76
2022-10-16T08:57:39.228Z,5.34
2022-10-16T08:58:41.183Z,5.22
2022-10-16T08:59:35.110Z,5.47
2022-10-16T09:00:30.221Z,5.44
2022-10-16T09:01:31.097Z,5.28
2022-10-16T09:02:40.179Z,5.32
2022-10-16T09:04:19.121Z,5.06
2022-10-16T09:05:33.109Z,5.00
2022-10-16T09:07:07.134Z,4.55
2022-10-16T09:08:37.127Z,4.55
2022-10-16T09:09:44.213Z,4.61
2022-10-16T09:10:46.099Z,4.55
2022-10-16T09:11:34.214Z,4.68
2022-10-16T09:12:34.500Z,4.68
2022-10-16T09:13:37.200Z,4.44
2022-10-16T09:14:44.124Z,4.14
2022-10-16T09:15:40.253Z,4.05
2022-10-16T09:16:36.094Z,3.94
2022-10-16T09:18:01.219Z,3.99
2022-10-16T09:18:53.131Z,4.28
2022-10-16T09:19:53.120Z,4.24
2022-10-16T09:21:33.062Z,3.79
2022-10-16T09:22:31.116Z,3.85
2022-10-16T09:23:32.115Z,3.85
2022-10-16T09:24:35.104Z,3.86
2022-10-16T09:25:22.136Z,3.91
2022-10-16T09:26:04.120Z,3.55
2022-10-16T09:26:44.104Z,3.79
2022-10-16T09:27:24.347Z,4.20
2022-10-16T09:28:06.061Z,3.97
2022-10-16T09:28:46.244Z,3.76
2022-10-16T09:29:29.096Z,3.76
2022-10-16T09:30:18.186Z,3.59
2022-10-16T09:30:59.154Z,3.55
2022-10-16T09:31:39.157Z,3.47
2022-10-16T09:32:26.058Z,3.30
2022-10-16T09:33:07.129Z,3.30
2022-10-16T09:33:49.058Z,3.30
2022-10-16T09:34:40.176Z,3.39
2022-10-16T09:35:29.110Z,3.54
2022-10-16T09:36:19.166Z,3.96
2022-10-16T09:37:15.279Z,3.83
2022-10-16T09:38:09.083Z,3.66
2022-10-16T09:39:03.071Z,3.41
2022-10-16T09:40:08.078Z,3.29
2022-10-16T09:41:03.625Z,3.42
2022-10-16T09:41:47.102Z,3.25
2022-10-16T09:42:32.216Z,3.22
2022-10-16T09:43:42.132Z,3.10
2022-10-16T09:44:35.187Z,3.10
2022-10-16T09:45:29.085Z,3.10
2022-10-16T09:46:13.147Z,3.13
2022-10-16T09:46:53.092Z,2.91
2022-10-16T09:47:38.428Z,2.92
2022-10-16T09:48:21.077Z,3.15
2022-10-16T09:49:10.137Z,3.24
2022-10-16T09:50:13.065Z,3.42
2022-10-16T09:51:07.169Z,3.24
2022-10-16T09:51:48.064Z,3.25
2022-10-16T09:52:28.276Z,3.14
2022-10-16T09:53:23.558Z,2.95
2022-10-16T09:54:16.104Z,2.49
2022-10-16T09:55:17.207Z,2.26
2022-10-16T09:56:05.882Z,2.44
2022-10-16T09:56:46.441Z,2.34
2022-10-16T09:57:34.077Z,2.42
2022-10-16T09:58:08.094Z,2.44
2022-10-16T09:59:01.113Z,2.24
2022-10-16T09:59:35.184Z,2.35